Time;durP1;ratioP1;P1;durP2;ratioP2;P2;SDS_P1;SDS_P2;PMS_P1;PMS_P2;Temp;Humidity;BMP_temperature;BMP_pressure;BME280_temperature;BME280_humidity;BME280_pressure;Samples;Min_cycle;Max_cycle;Signal;HPM_P1;HPM_P2
2023/01/22 00:01:35;;;;;;;21.58;10.27;;;;;;;;;;8330777;28;20557;-88
2023/01/22 00:05:38;;;;;;;24.90;13.05;;;;;;;;;;8329702;28;20121;-93
2023/01/22 00:09:41;;;;;;;22.92;10.88;;;;;;;;;;8332638;28;20490;-92
2023/01/22 00:13:46;;;;;;;22.83;10.77;;;;;;;;;;8337110;28;20511;-93
2023/01/22 00:17:49;;;;;;;28.92;10.98;;;;;;;;;;8334936;28;20053;-90
2023/01/22 00:21:52;;;;;;;28.65;11.88;;;;;;;;;;8330272;28;20076;-94
2023/01/22 00:26:01;;;;;;;17.08;7.82;;;;;;;;;;8332674;28;20041;-90
2023/01/22 00:30:07;;;;;;;22.50;10.02;;;;;;;;;;8330005;28;20068;-89
2023/01/22 00:34:13;;;;;;;23.77;11.25;;;;;;;;;;8331050;28;20076;-90
2023/01/22 00:38:16;;;;;;;15.55;8.10;;;;;;;;;;8331657;28;20544;-90
2023/01/22 00:42:18;;;;;;;17.73;7.38;;;;;;;;;;8326680;28;20033;-90
2023/01/22 00:46:23;;;;;;;27.55;12.55;;;;;;;;;;8332233;28;20495;-90
2023/01/22 00:50:26;;;;;;;25.95;10.20;;;;;;;;;;8332170;28;20048;-91
2023/01/22 00:54:29;;;;;;;5.38;3.05;;;;;;;;;;8332206;28;20117;-88
2023/01/22 00:58:32;;;;;;;23.73;10.20;;;;;;;;;;8332129;28;20485;-89
2023/01/22 01:03:25;;;;;;;16.98;7.70;;;;;;;;;;8330777;28;20476;-91
2023/01/22 01:07:00;;;;;;;15.23;6.72;;;;;;;;;;8332892;28;20045;-89
2023/01/22 01:11:06;;;;;;;13.43;7.57;;;;;;;;;;8332688;28;20045;-91
2023/01/22 01:15:09;;;;;;;15.65;8.38;;;;;;;;;;8326681;28;20054;-91
2023/01/22 01:19:16;;;;;;;12.98;6.60;;;;;;;;;;8329896;28;20040;-93
2023/01/22 01:23:19;;;;;;;15.27;8.30;;;;;;;;;;8333160;28;20045;-90
2023/01/22 01:27:21;;;;;;;13.45;6.57;;;;;;;;;;8333058;28;20045;-89
2023/01/22 01:31:24;;;;;;;15.10;6.90;;;;;;;;;;8331489;28;20676;-92
2023/01/22 01:35:29;;;;;;;14.13;6.95;;;;;;;;;;8342337;28;20046;-89
2023/01/22 01:39:31;;;;;;;13.38;7.25;;;;;;;;;;8358072;28;20050;-88
2023/01/22 01:43:35;;;;;;;15.38;7.68;;;;;;;;;;8332240;28;20076;-93
2023/01/22 01:47:37;;;;;;;16.55;8.95;;;;;;;;;;8332772;28;20041;-91
2023/01/22 01:51:42;;;;;;;15.48;7.32;;;;;;;;;;8332137;28;20057;-92
2023/01/22 01:55:45;;;;;;;12.43;6.00;;;;;;;;;;8331954;28;20049;-90
2023/01/22 01:59:49;;;;;;;12.68;6.45;;;;;;;;;;8331510;28;20045;-87
2023/01/22 02:03:52;;;;;;;10.02;5.15;;;;;;;;;;8332025;28;20045;-91
2023/01/22 02:07:57;;;;;;;17.08;7.82;;;;;;;;;;8332481;28;20116;-89
2023/01/22 02:12:00;;;;;;;13.90;6.68;;;;;;;;;;8333466;28;20049;-88
2023/01/22 02:16:04;;;;;;;13.20;6.90;;;;;;;;;;8335866;28;20118;-87
2023/01/22 02:20:08;;;;;;;15.05;7.40;;;;;;;;;;8331603;28;20118;-89
2023/01/22 02:24:15;;;;;;;14.02;7.97;;;;;;;;;;8330352;28;20485;-90
2023/01/22 02:28:18;;;;;;;15.82;7.47;;;;;;;;;;8331122;28;20123;-89
2023/01/22 02:32:21;;;;;;;16.40;8.00;;;;;;;;;;8331085;28;20137;-91
2023/01/22 02:36:24;;;;;;;14.43;6.85;;;;;;;;;;8331057;28;20056;-89
2023/01/22 02:40:29;;;;;;;14.00;6.70;;;;;;;;;;8331032;28;20053;-88
2023/01/22 02:44:32;;;;;;;13.85;6.93;;;;;;;;;;8331119;28;20045;-90
2023/01/22 02:48:35;;;;;;;14.20;6.93;;;;;;;;;;8330294;28;20037;-88
2023/01/22 02:52:38;;;;;;;21.17;10.18;;;;;;;;;;8332590;28;20392;-88
2023/01/22 02:56:42;;;;;;;19.92;10.57;;;;;;;;;;8337082;28;20056;-90
2023/01/22 03:00:45;;;;;;;14.50;8.10;;;;;;;;;;8336991;28;20132;-90
2023/01/22 03:04:51;;;;;;;21.10;9.57;;;;;;;;;;8337251;28;20436;-91
2023/01/22 03:08:56;;;;;;;25.80;10.32;;;;;;;;;;8336914;28;20128;-92
2023/01/22 03:21:42;;;;;;;17.55;8.50;;;;;;;;;;8325165;28;20058;-91
2023/01/22 03:25:45;;;;;;;23.70;11.55;;;;;;;;;;8336468;28;20073;-90
2023/01/22 03:29:50;;;;;;;17.08;7.28;;;;;;;;;;8336091;28;20144;-92
2023/01/22 03:33:52;;;;;;;20.20;11.43;;;;;;;;;;8336188;28;20128;-91
2023/01/22 03:37:55;;;;;;;20.50;10.05;;;;;;;;;;8336654;28;20041;-89
2023/01/22 03:41:58;;;;;;;15.20;6.88;;;;;;;;;;8335493;28;20047;-89
2023/01/22 03:46:05;;;;;;;16.02;6.35;;;;;;;;;;8335529;28;20066;-88
2023/01/22 03:50:10;;;;;;;22.00;8.43;;;;;;;;;;8335439;28;20045;-89
2023/01/22 03:54:13;;;;;;;14.52;7.30;;;;;;;;;;8335539;28;20051;-90
2023/01/22 03:58:17;;;;;;;20.63;8.73;;;;;;;;;;8335667;28;20045;-90
2023/01/22 04:02:21;;;;;;;13.13;8.20;;;;;;;;;;8335170;28;20046;-91
2023/01/22 04:06:24;;;;;;;14.95;7.28;;;;;;;;;;8334428;28;20049;-91
2023/01/22 04:10:27;;;;;;;22.27;11.32;;;;;;;;;;8334199;28;20470;-89
2023/01/22 04:14:30;;;;;;;15.27;8.00;;;;;;;;;;8334830;28;20671;-90
2023/01/22 04:18:35;;;;;;;12.40;5.43;;;;;;;;;;8335055;28;20116;-91
2023/01/22 04:22:38;;;;;;;16.58;7.20;;;;;;;;;;8334434;28;20072;-89
2023/01/22 04:26:41;;;;;;;12.15;5.45;;;;;;;;;;8334400;28;20055;-89
2023/01/22 04:30:46;;;;;;;14.27;7.38;;;;;;;;;;8334597;28;20053;-92
2023/01/22 04:34:50;;;;;;;11.40;5.68;;;;;;;;;;8334363;28;20489;-91
2023/01/22 04:38:53;;;;;;;13.98;7.35;;;;;;;;;;8334164;28;20128;-88
2023/01/22 04:43:00;;;;;;;15.73;7.10;;;;;;;;;;8333982;28;20099;-90
2023/01/22 04:47:03;;;;;;;13.85;6.03;;;;;;;;;;8333276;28;20056;-88
2023/01/22 04:51:07;;;;;;;11.55;5.75;;;;;;;;;;8331785;28;20037;-89
2023/01/22 04:55:11;;;;;;;11.93;5.45;;;;;;;;;;8332952;28;20141;-88
2023/01/22 04:59:14;;;;;;;9.68;5.50;;;;;;;;;;8333247;28;20045;-90
2023/01/22 05:03:17;;;;;;;10.93;4.90;;;;;;;;;;8333440;28;20041;-87
2023/01/22 05:07:22;;;;;;;10.70;4.70;;;;;;;;;;8333129;28;20116;-89
2023/01/22 05:11:25;;;;;;;7.22;3.13;;;;;;;;;;8332414;28;20037;-89
2023/01/22 05:15:28;;;;;;;14.25;4.65;;;;;;;;;;8322873;28;20394;-90
2023/01/22 05:19:31;;;;;;;9.18;4.53;;;;;;;;;;8332309;28;20049;-90
2023/01/22 05:23:35;;;;;;;9.40;5.43;;;;;;;;;;8332469;28;20124;-88
2023/01/22 05:27:38;;;;;;;10.70;5.53;;;;;;;;;;8332265;28;20069;-88
2023/01/22 05:31:41;;;;;;;13.32;6.63;;;;;;;;;;8331518;28;20053;-89
2023/01/22 05:35:44;;;;;;;9.60;4.90;;;;;;;;;;8332246;28;20050;-90
2023/01/22 05:39:48;;;;;;;9.10;4.50;;;;;;;;;;8330716;28;20069;-89
2023/01/22 05:43:51;;;;;;;16.60;6.10;;;;;;;;;;8330983;28;20049;-90
2023/01/22 05:47:54;;;;;;;9.23;4.63;;;;;;;;;;8331180;28;20041;-88
2023/01/22 05:51:57;;;;;;;15.00;5.68;;;;;;;;;;8330989;28;20045;-88
2023/01/22 05:56:03;;;;;;;2.78;2.22;;;;;;;;;;8330869;28;20083;-88
2023/01/22 06:00:08;;;;;;;27.15;10.15;;;;;;;;;;8344531;28;20082;-87
2023/01/22 06:04:11;;;;;;;9.63;4.88;;;;;;;;;;8330819;28;20497;-90
2023/01/22 06:08:14;;;;;;;8.18;4.20;;;;;;;;;;8330196;28;20408;-88
2023/01/22 06:12:18;;;;;;;11.25;4.97;;;;;;;;;;8329772;28;20056;-88
2023/01/22 06:16:21;;;;;;;26.23;10.75;;;;;;;;;;8332707;28;20576;-90
2023/01/22 06:20:24;;;;;;;27.92;11.48;;;;;;;;;;8330121;28;20041;-88
2023/01/22 06:24:27;;;;;;;19.00;6.80;;;;;;;;;;8330438;28;20049;-86
2023/01/22 06:28:32;;;;;;;42.05;16.77;;;;;;;;;;8337694;28;20068;-86
2023/01/22 06:32:35;;;;;;;56.05;24.85;;;;;;;;;;8327806;28;20094;-89
2023/01/22 06:36:38;;;;;;;66.65;36.75;;;;;;;;;;8326372;28;20497;-90
2023/01/22 06:40:41;;;;;;;22.60;10.55;;;;;;;;;;8329033;28;20120;-88
2023/01/22 06:44:46;;;;;;;99.18;47.45;;;;;;;;;;8329321;28;20051;-87
2023/01/22 06:48:51;;;;;;;26.73;15.85;;;;;;;;;;8329458;28;20045;-89
2023/01/22 06:53:02;;;;;;;23.38;11.55;;;;;;;;;;8323253;28;20045;-89
2023/01/22 06:57:05;;;;;;;26.25;10.98;;;;;;;;;;8322965;28;20061;-89
2023/01/22 07:01:10;;;;;;;13.52;6.57;;;;;;;;;;8328114;28;20049;-87
2023/01/22 07:05:14;;;;;;;9.88;5.22;;;;;;;;;;8328251;28;20508;-90
2023/01/22 07:09:17;;;;;;;11.68;5.32;;;;;;;;;;8327241;28;20045;-89
2023/01/22 07:13:20;;;;;;;9.20;5.25;;;;;;;;;;8326196;28;20076;-89
2023/01/22 07:17:27;;;;;;;9.30;4.80;;;;;;;;;;8328850;28;20091;-87
2023/01/22 07:21:30;;;;;;;10.40;5.35;;;;;;;;;;8328420;28;20076;-87
2023/01/22 07:25:33;;;;;;;10.93;5.65;;;;;;;;;;8327190;28;20116;-89
2023/01/22 07:29:36;;;;;;;16.48;6.80;;;;;;;;;;8328177;28;20522;-87
2023/01/22 07:33:42;;;;;;;22.80;10.98;;;;;;;;;;8327781;28;20046;-89
2023/01/22 07:37:51;;;;;;;15.05;7.25;;;;;;;;;;8328698;28;20507;-89
2023/01/22 07:41:54;;;;;;;19.23;8.15;;;;;;;;;;8332540;28;20128;-89
2023/01/22 07:45:57;;;;;;;12.75;6.15;;;;;;;;;;8333423;28;20529;-89
2023/01/22 07:50:02;;;;;;;31.23;14.40;;;;;;;;;;8334348;28;20051;-89
2023/01/22 07:54:04;;;;;;;24.77;11.07;;;;;;;;;;8331048;28;20084;-87
2023/01/22 07:58:08;;;;;;;30.35;13.75;;;;;;;;;;8329976;28;20045;-89
2023/01/22 08:02:13;;;;;;;55.78;20.85;;;;;;;;;;8330510;28;20115;-87
2023/01/22 08:06:20;;;;;;;35.65;16.60;;;;;;;;;;8330345;28;20041;-88
2023/01/22 08:10:23;;;;;;;34.25;17.60;;;;;;;;;;8332645;28;20201;-87
2023/01/22 08:14:26;;;;;;;25.50;11.23;;;;;;;;;;8330479;28;20095;-88
2023/01/22 08:18:29;;;;;;;27.85;14.98;;;;;;;;;;8332511;28;20049;-87
2023/01/22 08:22:34;;;;;;;25.13;12.85;;;;;;;;;;8332801;28;20091;-89
2023/01/22 08:26:38;;;;;;;30.55;13.75;;;;;;;;;;8336128;28;20051;-88
2023/01/22 08:30:41;;;;;;;36.40;18.77;;;;;;;;;;8350948;28;20555;-88
2023/01/22 08:34:44;;;;;;;36.60;16.05;;;;;;;;;;8335363;28;20041;-89
2023/01/22 08:38:48;;;;;;;45.00;19.08;;;;;;;;;;8329754;28;20564;-91
2023/01/22 08:42:51;;;;;;;49.33;18.27;;;;;;;;;;8328014;28;20516;-88
2023/01/22 08:46:54;;;;;;;57.85;20.15;;;;;;;;;;8325055;28;20132;-87
2023/01/22 08:51:00;;;;;;;42.15;16.50;;;;;;;;;;8332550;28;20502;-92
2023/01/22 08:55:08;;;;;;;33.97;12.57;;;;;;;;;;8336482;28;20129;-88
2023/01/22 08:59:11;;;;;;;22.45;9.77;;;;;;;;;;8324000;28;20127;-90
2023/01/22 09:03:14;;;;;;;28.05;10.93;;;;;;;;;;8314250;28;20064;-87
2023/01/22 09:07:18;;;;;;;22.40;9.65;;;;;;;;;;8334675;28;20068;-90
2023/01/22 09:11:22;;;;;;;30.77;12.70;;;;;;;;;;8334485;28;20139;-89
2023/01/22 09:15:25;;;;;;;39.75;16.17;;;;;;;;;;8325802;28;20455;-90
2023/01/22 09:19:28;;;;;;;25.02;10.85;;;;;;;;;;8338055;28;20041;-89
2023/01/22 09:23:32;;;;;;;25.13;9.98;;;;;;;;;;8330739;28;20056;-93
2023/01/22 09:27:37;;;;;;;102.85;41.83;;;;;;;;;;8326407;28;20465;-91
2023/01/22 09:31:40;;;;;;;33.13;13.18;;;;;;;;;;8338968;28;20065;-92
2023/01/22 09:35:43;;;;;;;41.70;16.70;;;;;;;;;;8331914;28;20069;-91
2023/01/22 09:39:49;;;;;;;24.05;10.10;;;;;;;;;;8323731;28;20148;-89
2023/01/22 09:43:57;;;;;;;49.55;21.50;;;;;;;;;;8346795;28;20098;-91
2023/01/22 09:48:06;;;;;;;57.78;25.70;;;;;;;;;;8327820;28;20049;-95
2023/01/22 09:52:11;;;;;;;37.00;14.45;;;;;;;;;;8345738;28;20087;-93
2023/01/22 09:56:20;;;;;;;28.90;11.70;;;;;;;;;;8336955;28;20053;-94
2023/01/22 10:00:36;;;;;;;43.20;23.73;;;;;;;;;;8321816;28;20037;-92
2023/01/22 10:04:44;;;;;;;48.38;24.30;;;;;;;;;;8345582;28;20041;-92
2023/01/22 10:09:11;;;;;;;29.40;12.93;;;;;;;;;;8337740;28;20056;-92
2023/01/22 10:13:19;;;;;;;31.23;16.05;;;;;;;;;;8330520;28;20077;-93
2023/01/22 10:17:36;;;;;;;30.98;15.13;;;;;;;;;;8356989;28;20083;-92
2023/01/22 10:21:44;;;;;;;40.63;18.38;;;;;;;;;;8280014;28;20068;-88
2023/01/22 10:25:48;;;;;;;44.42;23.40;;;;;;;;;;8314137;28;20484;-88
2023/01/22 10:29:59;;;;;;;35.65;17.02;;;;;;;;;;8323723;28;20148;-86
2023/01/22 10:34:10;;;;;;;73.43;27.58;;;;;;;;;;8320596;28;20052;-87
2023/01/22 10:38:23;;;;;;;113.25;42.20;;;;;;;;;;8328296;28;20500;-87
2023/01/22 10:42:28;;;;;;;46.78;17.85;;;;;;;;;;8324673;28;20120;-88
2023/01/22 10:46:31;;;;;;;85.82;34.05;;;;;;;;;;8322052;28;20481;-87
2023/01/22 10:50:36;;;;;;;80.80;29.80;;;;;;;;;;8323331;28;20056;-86
2023/01/22 10:54:42;;;;;;;57.17;20.35;;;;;;;;;;8324579;28;20048;-87
2023/01/22 10:58:48;;;;;;;53.33;20.42;;;;;;;;;;8323886;28;20045;-86
2023/01/22 11:02:51;;;;;;;92.93;35.75;;;;;;;;;;8313706;28;20050;-89
2023/01/22 11:07:02;;;;;;;98.93;40.03;;;;;;;;;;8323660;28;20048;-88
2023/01/22 11:11:09;;;;;;;95.88;37.70;;;;;;;;;;8326610;28;20128;-88
2023/01/22 11:15:20;;;;;;;80.20;27.75;;;;;;;;;;8325568;28;20095;-89
2023/01/22 11:19:27;;;;;;;54.45;26.08;;;;;;;;;;8318994;28;20124;-87
2023/01/22 11:23:40;;;;;;;34.78;14.90;;;;;;;;;;8324432;28;20124;-90
2023/01/22 11:28:03;;;;;;;77.43;28.95;;;;;;;;;;8324876;28;20049;-91
2023/01/22 11:32:29;;;;;;;79.40;28.92;;;;;;;;;;8329727;28;20089;-88
2023/01/22 11:36:38;;;;;;;70.20;26.95;;;;;;;;;;8330090;28;20522;-89
2023/01/22 11:40:57;;;;;;;29.90;12.40;;;;;;;;;;8325512;28;20641;-87
2023/01/22 11:45:14;;;;;;;46.00;21.48;;;;;;;;;;8331799;28;20045;-87
2023/01/22 11:49:26;;;;;;;38.17;16.73;;;;;;;;;;8320138;28;20408;-87
2023/01/22 11:53:45;;;;;;;111.22;40.10;;;;;;;;;;8332688;28;20467;-86
2023/01/22 11:57:57;;;;;;;30.27;14.48;;;;;;;;;;8332866;28;20072;-86
2023/01/22 12:02:17;;;;;;;53.20;22.02;;;;;;;;;;8333654;28;20041;-86
2023/01/22 12:06:39;;;;;;;22.27;11.02;;;;;;;;;;8334048;28;20046;-87
2023/01/22 12:11:16;;;;;;;19.02;9.70;;;;;;;;;;8333872;28;20540;-88
2023/01/22 12:15:37;;;;;;;41.28;17.85;;;;;;;;;;8332468;28;20057;-87
2023/01/22 12:20:23;;;;;;;42.50;18.70;;;;;;;;;;8333726;28;20068;-87
2023/01/22 12:24:32;;;;;;;31.60;14.23;;;;;;;;;;8263681;28;20065;-86
2023/01/22 12:28:42;;;;;;;23.50;9.98;;;;;;;;;;8264623;28;20201;-87
2023/01/22 12:32:51;;;;;;;91.85;41.55;;;;;;;;;;8247713;28;20161;-86
2023/01/22 12:36:56;;;;;;;47.13;20.40;;;;;;;;;;8264217;28;20178;-87
2023/01/22 12:41:11;;;;;;;36.55;16.63;;;;;;;;;;8263704;28;20065;-87
2023/01/22 12:45:22;;;;;;;28.45;13.55;;;;;;;;;;8263914;28;20050;-88
2023/01/22 12:49:28;;;;;;;23.33;10.52;;;;;;;;;;8263916;28;20069;-86
2023/01/22 12:53:35;;;;;;;36.10;17.13;;;;;;;;;;8280839;28;20061;-87
2023/01/22 12:57:42;;;;;;;31.20;15.50;;;;;;;;;;8333708;28;20045;-92
2023/01/22 13:01:47;;;;;;;63.35;30.08;;;;;;;;;;8351297;28;20037;-93
2023/01/22 13:05:54;;;;;;;17.33;8.32;;;;;;;;;;8331954;28;20056;-88
2023/01/22 13:10:05;;;;;;;50.83;20.27;;;;;;;;;;8331219;28;20042;-86
2023/01/22 13:14:19;;;;;;;26.90;10.85;;;;;;;;;;8344674;28;20097;-90
2023/01/22 13:18:24;;;;;;;34.00;13.90;;;;;;;;;;8331354;28;20057;-88
2023/01/22 13:22:31;;;;;;;32.00;13.80;;;;;;;;;;8330619;28;20118;-87
2023/01/22 13:26:37;;;;;;;55.17;21.38;;;;;;;;;;8330606;28;20631;-85
2023/01/22 13:30:41;;;;;;;21.95;9.65;;;;;;;;;;8325774;28;20081;-89
2023/01/22 13:34:45;;;;;;;22.08;10.48;;;;;;;;;;8325191;28;20050;-90
2023/01/22 13:38:55;;;;;;;27.65;10.82;;;;;;;;;;8318584;28;20046;-89
2023/01/22 13:42:59;;;;;;;40.10;19.48;;;;;;;;;;8323623;28;20045;-89
2023/01/22 13:47:03;;;;;;;22.30;10.25;;;;;;;;;;8318188;28;20147;-90
2023/01/22 13:51:16;;;;;;;24.70;11.45;;;;;;;;;;8321804;28;20108;-90
2023/01/22 13:55:23;;;;;;;37.63;15.48;;;;;;;;;;8311906;28;20065;-90
2023/01/22 13:59:33;;;;;;;82.88;33.35;;;;;;;;;;8331258;28;20045;-90
2023/01/22 14:03:37;;;;;;;325.88;100.45;;;;;;;;;;8322668;28;20603;-89
2023/01/22 14:07:42;;;;;;;21.88;9.70;;;;;;;;;;8322674;28;20048;-90
2023/01/22 14:11:46;;;;;;;49.58;21.30;;;;;;;;;;8313967;28;20049;-89
2023/01/22 14:16:05;;;;;;;35.78;14.38;;;;;;;;;;8319545;28;20552;-88
2023/01/22 14:20:12;;;;;;;39.78;19.42;;;;;;;;;;8325403;28;20477;-90
2023/01/22 14:24:15;;;;;;;78.07;33.38;;;;;;;;;;8338867;28;20060;-88
2023/01/22 14:28:25;;;;;;;20.20;8.90;;;;;;;;;;8312048;28;20099;-92
2023/01/22 14:32:29;;;;;;;19.63;9.57;;;;;;;;;;8318965;28;20523;-88
2023/01/22 14:36:37;;;;;;;17.02;8.55;;;;;;;;;;8333868;28;20484;-90
2023/01/22 14:40:43;;;;;;;54.25;26.90;;;;;;;;;;8325320;28;20124;-89
2023/01/22 14:44:49;;;;;;;24.33;11.68;;;;;;;;;;8315782;28;20061;-88
2023/01/22 14:48:53;;;;;;;54.45;24.73;;;;;;;;;;8317246;28;20046;-89
2023/01/22 14:52:57;;;;;;;69.20;28.42;;;;;;;;;;8323581;28;20050;-88
2023/01/22 14:57:03;;;;;;;38.83;17.05;;;;;;;;;;8323783;28;20049;-89
2023/01/22 15:01:17;;;;;;;106.78;46.70;;;;;;;;;;8314160;28;20073;-89
2023/01/22 15:05:20;;;;;;;33.65;17.05;;;;;;;;;;8321209;28;20123;-90
2023/01/22 15:09:24;;;;;;;100.90;38.22;;;;;;;;;;8319520;28;20045;-89
2023/01/22 15:13:28;;;;;;;13.68;6.60;;;;;;;;;;8323571;28;20037;-89
2023/01/22 15:17:36;;;;;;;13.73;5.18;;;;;;;;;;8321333;28;20493;-89
2023/01/22 15:21:40;;;;;;;71.03;30.90;;;;;;;;;;8321975;28;20052;-87
2023/01/22 15:39:47;;;;;;;139.20;40.42;;;;;;;;;;8448872;27;1976907;-89
2023/01/22 15:44:00;;;;;;;259.38;92.65;;;;;;;;;;8488340;28;20099;-90
2023/01/22 15:48:04;;;;;;;105.75;39.17;;;;;;;;;;8493318;28;20410;-89
2023/01/22 15:52:09;;;;;;;141.55;52.92;;;;;;;;;;8485776;28;20110;-88
2023/01/22 15:56:17;;;;;;;22.95;9.85;;;;;;;;;;8483059;28;20039;-87
2023/01/22 16:00:23;;;;;;;227.98;70.53;;;;;;;;;;8479038;28;20095;-88
2023/01/22 16:04:28;;;;;;;24.40;11.68;;;;;;;;;;8479507;28;20066;-88
2023/01/22 16:08:33;;;;;;;30.58;12.68;;;;;;;;;;8473957;28;20051;-88
2023/01/22 16:12:40;;;;;;;15.07;6.00;;;;;;;;;;8469806;28;20051;-88
2023/01/22 16:16:44;;;;;;;31.35;14.75;;;;;;;;;;8479804;28;20122;-89
2023/01/22 16:20:48;;;;;;;20.48;8.52;;;;;;;;;;8476108;28;20188;-88
2023/01/22 16:24:53;;;;;;;63.67;21.05;;;;;;;;;;8472625;28;20047;-89
2023/01/22 16:29:03;;;;;;;65.38;25.75;;;;;;;;;;8474354;28;20039;-88
2023/01/22 16:33:21;;;;;;;26.15;11.30;;;;;;;;;;8477658;28;20861;-88
2023/01/22 16:37:26;;;;;;;143.73;62.60;;;;;;;;;;8473254;28;20399;-88
2023/01/22 16:41:32;;;;;;;56.30;24.92;;;;;;;;;;8452592;28;20043;-88
2023/01/22 16:45:38;;;;;;;88.03;48.15;;;;;;;;;;8452415;28;20036;-89
2023/01/22 16:49:44;;;;;;;52.13;23.17;;;;;;;;;;8440219;28;20047;-90
2023/01/22 16:53:51;;;;;;;83.68;34.90;;;;;;;;;;8445622;28;20067;-90
2023/01/22 16:57:55;;;;;;;106.65;32.40;;;;;;;;;;8443076;28;20372;-89
2023/01/22 17:14:03;;;;;;;139.48;49.58;;;;;;;;;;8537665;27;20177;-87
2023/01/22 17:18:10;;;;;;;147.95;75.25;;;;;;;;;;8507284;27;20050;-87
2023/01/22 17:22:14;;;;;;;127.10;55.45;;;;;;;;;;8454967;27;20048;-87
2023/01/22 17:26:19;;;;;;;103.65;34.30;;;;;;;;;;8498746;27;20046;-88
2023/01/22 17:30:25;;;;;;;117.70;38.70;;;;;;;;;;8512616;27;20133;-88
2023/01/22 17:34:30;;;;;;;53.22;22.33;;;;;;;;;;8503966;27;20055;-89
2023/01/22 17:38:35;;;;;;;90.57;35.88;;;;;;;;;;8490995;27;20547;-89
2023/01/22 17:42:40;;;;;;;33.45;14.75;;;;;;;;;;8520603;27;20458;-88
2023/01/22 17:46:47;;;;;;;58.17;26.13;;;;;;;;;;8512856;27;20054;-88
2023/01/22 17:50:52;;;;;;;64.75;21.17;;;;;;;;;;8501263;27;20042;-90
2023/01/22 17:54:59;;;;;;;44.50;23.42;;;;;;;;;;8496952;27;20043;-89
2023/01/22 18:03:29;;;;;;;42.70;16.50;;;;;;;;;;8498896;27;20076;-88
2023/01/22 18:07:34;;;;;;;84.70;35.17;;;;;;;;;;8506821;27;20147;-89
2023/01/22 18:11:39;;;;;;;72.22;30.58;;;;;;;;;;8495714;27;20142;-87
2023/01/22 18:15:46;;;;;;;52.30;20.85;;;;;;;;;;8488653;27;20035;-88
2023/01/22 18:19:54;;;;;;;63.65;23.52;;;;;;;;;;8476911;27;20465;-86
2023/01/22 18:24:02;;;;;;;68.95;23.05;;;;;;;;;;8471293;27;20406;-88
2023/01/22 18:28:09;;;;;;;59.15;21.35;;;;;;;;;;8483668;27;20042;-86
2023/01/22 18:32:13;;;;;;;43.50;16.92;;;;;;;;;;8468515;27;20039;-87
2023/01/22 18:36:23;;;;;;;56.65;22.95;;;;;;;;;;8487527;27;20501;-85
2023/01/22 18:40:29;;;;;;;92.32;33.55;;;;;;;;;;8480355;27;20065;-86
2023/01/22 18:44:33;;;;;;;83.45;33.95;;;;;;;;;;8486348;27;20051;-85
2023/01/22 18:48:37;;;;;;;86.18;29.40;;;;;;;;;;8475809;27;20036;-88
2023/01/22 18:52:44;;;;;;;52.85;16.30;;;;;;;;;;8481814;27;20597;-87
2023/01/22 18:56:49;;;;;;;29.25;11.20;;;;;;;;;;8479424;27;20073;-89
2023/01/22 19:00:54;;;;;;;46.25;16.40;;;;;;;;;;8486701;27;20424;-87
2023/01/22 19:05:00;;;;;;;34.78;14.40;;;;;;;;;;8488538;27;20066;-88
2023/01/22 19:09:12;;;;;;;74.65;32.67;;;;;;;;;;8487921;27;20072;-85
2023/01/22 19:13:17;;;;;;;72.38;26.88;;;;;;;;;;8483003;27;20166;-85
2023/01/22 19:17:24;;;;;;;124.72;47.67;;;;;;;;;;8481442;27;20507;-84
2023/01/22 19:21:30;;;;;;;126.93;47.42;;;;;;;;;;8482603;27;20375;-84
2023/01/22 19:25:36;;;;;;;70.53;26.70;;;;;;;;;;8472930;27;21440;-84
2023/01/22 19:29:44;;;;;;;77.97;34.50;;;;;;;;;;8480686;27;20070;-86
2023/01/22 19:33:52;;;;;;;75.03;34.90;;;;;;;;;;8478913;27;20040;-85
2023/01/22 19:38:00;;;;;;;75.45;33.92;;;;;;;;;;8481513;27;20486;-85
2023/01/22 19:42:09;;;;;;;77.43;34.67;;;;;;;;;;8482089;27;20039;-83
2023/01/22 19:46:15;;;;;;;96.03;44.20;;;;;;;;;;8475989;27;20047;-85
2023/01/22 19:50:24;;;;;;;96.18;28.63;;;;;;;;;;8480518;27;20035;-85
2023/01/22 19:54:33;;;;;;;43.53;18.17;;;;;;;;;;8446920;27;20543;-84
2023/01/22 19:58:42;;;;;;;52.75;21.60;;;;;;;;;;8483009;27;20126;-84
2023/01/22 20:02:47;;;;;;;48.35;19.02;;;;;;;;;;8487320;27;20466;-83
2023/01/22 20:06:57;;;;;;;114.35;47.13;;;;;;;;;;8498530;27;20050;-86
2023/01/22 20:11:08;;;;;;;76.13;33.50;;;;;;;;;;8463671;27;20115;-86
2023/01/22 20:15:27;;;;;;;33.05;14.68;;;;;;;;;;8498252;27;20582;-84
2023/01/22 20:19:32;;;;;;;41.75;16.98;;;;;;;;;;8498215;27;20136;-85
2023/01/22 20:23:39;;;;;;;32.28;14.52;;;;;;;;;;8498011;27;20043;-87
2023/01/22 20:27:44;;;;;;;35.40;14.68;;;;;;;;;;8496806;27;20050;-85
2023/01/22 20:31:52;;;;;;;31.13;13.70;;;;;;;;;;8496542;27;20510;-84
2023/01/22 20:36:02;;;;;;;35.13;14.98;;;;;;;;;;8497463;27;20068;-87
2023/01/22 20:40:08;;;;;;;127.03;53.78;;;;;;;;;;8496214;27;20043;-86
2023/01/22 20:44:13;;;;;;;100.68;46.45;;;;;;;;;;8497526;27;20043;-87
2023/01/22 20:48:19;;;;;;;94.72;40.80;;;;;;;;;;8497651;27;20601;-83
2023/01/22 20:52:25;;;;;;;52.90;22.33;;;;;;;;;;8497368;27;20047;-83
2023/01/22 20:56:33;;;;;;;84.82;36.30;;;;;;;;;;8497439;27;20046;-84
2023/01/22 21:00:40;;;;;;;79.85;32.42;;;;;;;;;;8497325;28;20047;-85
2023/01/22 21:04:46;;;;;;;100.75;40.08;;;;;;;;;;8497201;28;20039;-88
2023/01/22 21:08:54;;;;;;;48.17;19.05;;;;;;;;;;8497110;28;20047;-83
2023/01/22 21:12:59;;;;;;;34.25;14.23;;;;;;;;;;8496737;28;20051;-85
2023/01/22 21:17:03;;;;;;;41.78;16.33;;;;;;;;;;8496824;28;20130;-90
2023/01/22 21:21:11;;;;;;;52.92;20.80;;;;;;;;;;8496740;27;20452;-88
2023/01/22 21:25:16;;;;;;;392.75;115.43;;;;;;;;;;8495630;28;20478;-84
2023/01/22 21:29:22;;;;;;;469.88;157.93;;;;;;;;;;8495869;28;20055;-84
2023/01/22 21:33:25;;;;;;;137.60;41.63;;;;;;;;;;8496648;28;20046;-84
2023/01/22 21:37:30;;;;;;;54.65;20.20;;;;;;;;;;8496610;28;20104;-84
2023/01/22 21:41:34;;;;;;;44.72;16.90;;;;;;;;;;8496666;28;20054;-83
2023/01/22 21:50:02;;;;;;;180.00;54.30;;;;;;;;;;8502288;27;20486;-82
2023/01/22 21:54:08;;;;;;;284.85;90.28;;;;;;;;;;8502630;27;20074;-84
2023/01/22 21:58:11;;;;;;;340.42;107.53;;;;;;;;;;8502554;27;20473;-86
2023/01/22 22:02:16;;;;;;;207.68;75.40;;;;;;;;;;8502185;27;20047;-88
2023/01/22 22:06:19;;;;;;;164.73;48.13;;;;;;;;;;8502313;27;20450;-83
2023/01/22 22:10:23;;;;;;;162.40;54.30;;;;;;;;;;8501938;27;20059;-84
2023/01/22 22:14:27;;;;;;;194.15;53.83;;;;;;;;;;8502000;27;20043;-85
2023/01/22 22:18:30;;;;;;;167.27;46.53;;;;;;;;;;8501883;27;20059;-84
2023/01/22 22:22:33;;;;;;;235.32;60.05;;;;;;;;;;8501566;27;20051;-85
2023/01/22 22:26:38;;;;;;;139.38;45.70;;;;;;;;;;8501494;27;20130;-82
2023/01/22 22:30:41;;;;;;;245.52;73.03;;;;;;;;;;8501556;27;20043;-82
2023/01/22 22:34:44;;;;;;;194.07;50.90;;;;;;;;;;8501292;27;20068;-84
2023/01/22 22:38:48;;;;;;;75.97;24.42;;;;;;;;;;8501304;27;20043;-83
2023/01/22 22:42:52;;;;;;;54.22;17.75;;;;;;;;;;8500987;27;20051;-85
2023/01/22 22:46:55;;;;;;;88.85;26.35;;;;;;;;;;8500969;27;20085;-82
2023/01/22 22:50:58;;;;;;;80.72;24.27;;;;;;;;;;8500845;27;20130;-86
2023/01/22 22:55:01;;;;;;;47.53;16.38;;;;;;;;;;8500676;27;20047;-83
2023/01/22 22:59:06;;;;;;;52.42;15.82;;;;;;;;;;8500557;27;20047;-83
2023/01/22 23:03:09;;;;;;;50.60;16.33;;;;;;;;;;8500301;27;20050;-84
2023/01/22 23:07:11;;;;;;;59.55;17.33;;;;;;;;;;8500273;27;20114;-88
2023/01/22 23:11:15;;;;;;;87.43;18.88;;;;;;;;;;8498888;27;20047;-81
2023/01/22 23:15:20;;;;;;;108.85;18.98;;;;;;;;;;8499962;27;20050;-85
2023/01/22 23:19:25;;;;;;;57.97;21.13;;;;;;;;;;8500015;27;20043;-88
2023/01/22 23:23:28;;;;;;;43.47;15.50;;;;;;;;;;8499833;27;20134;-82
2023/01/22 23:27:30;;;;;;;47.78;16.80;;;;;;;;;;8499603;27;20043;-84
2023/01/22 23:31:36;;;;;;;88.45;23.67;;;;;;;;;;8499504;27;20051;-83
2023/01/22 23:35:39;;;;;;;70.82;21.40;;;;;;;;;;8499419;27;20041;-85
2023/01/22 23:39:44;;;;;;;63.80;20.00;;;;;;;;;;8499251;27;20043;-82
2023/01/22 23:43:47;;;;;;;62.97;18.88;;;;;;;;;;8499061;27;20047;-83
2023/01/22 23:47:51;;;;;;;60.30;23.77;;;;;;;;;;8498844;27;20051;-84
2023/01/22 23:51:54;;;;;;;64.13;21.10;;;;;;;;;;8498808;27;20053;-84
2023/01/22 23:55:58;;;;;;;54.28;16.45;;;;;;;;;;8498625;27;20047;-84
